createdAt,value
2023-01-01T00:01:41.601Z,2.75
2023-01-01T00:04:14.296Z,2.42
2023-01-01T00:06:42.268Z,4.00
2023-01-01T00:09:29.115Z,4.70
2023-01-01T00:11:56.793Z,5.20
2023-01-01T00:14:24.412Z,5.47
2023-01-01T00:16:52.275Z,4.13
2023-01-01T00:19:19.876Z,6.75
2023-01-01T00:21:47.528Z,6.38
2023-01-01T00:24:16.443Z,3.75
2023-01-01T00:26:44.020Z,4.73
2023-01-01T00:29:11.719Z,3.15
2023-01-01T00:31:39.465Z,3.97
2023-01-01T00:34:07.135Z,2.92
2023-01-01T00:36:34.717Z,3.08
2023-01-01T00:39:03.063Z,4.63
2023-01-01T00:41:32.124Z,4.47
2023-01-01T00:44:00.147Z,3.60
2023-01-01T00:46:27.842Z,3.00
2023-01-01T00:48:55.533Z,3.70
2023-01-01T00:51:23.106Z,4.70
2023-01-01T00:53:50.740Z,3.90
2023-01-01T00:56:18.274Z,3.13
2023-01-01T00:59:00.585Z,2.75
2023-01-01T01:01:29.429Z,4.95
2023-01-01T01:03:57.312Z,3.72
2023-01-01T01:06:25.088Z,4.00
2023-01-01T01:08:52.672Z,2.95
2023-01-01T01:11:22.231Z,3.10
2023-01-01T01:13:53.335Z,3.13
2023-01-01T01:16:24.378Z,2.30
2023-01-01T01:18:53.102Z,2.83
2023-01-01T01:21:23.845Z,5.38
2023-01-01T01:23:52.521Z,2.47
2023-01-01T01:26:21.771Z,3.03
2023-01-01T01:28:51.241Z,2.22
2023-01-01T01:31:19.867Z,2.97
2023-01-01T01:33:48.387Z,3.22
2023-01-01T01:36:17.900Z,3.63
2023-01-01T01:38:46.446Z,4.30
2023-01-01T01:41:26.866Z,2.90
2023-01-01T01:44:00.162Z,3.05
2023-01-01T01:46:32.730Z,3.90
2023-01-01T01:49:03.711Z,2.72
2023-01-01T01:51:37.750Z,3.95
2023-01-01T01:54:11.560Z,4.07
2023-01-01T01:56:45.431Z,3.53
2023-01-01T01:59:15.059Z,4.68
2023-01-01T02:01:43.196Z,3.28
2023-01-01T02:04:12.445Z,3.63
2023-01-01T02:06:41.119Z,3.92
2023-01-01T02:09:10.419Z,3.10
2023-01-01T02:11:38.001Z,3.40
2023-01-01T02:14:06.205Z,3.70
2023-01-01T02:16:40.656Z,4.43
2023-01-01T02:19:18.196Z,3.88
2023-01-01T02:21:57.621Z,3.15
2023-01-01T02:24:42.673Z,3.42
2023-01-01T02:27:18.435Z,3.60
2023-01-01T02:29:51.952Z,3.63
2023-01-01T02:32:22.174Z,3.15
2023-01-01T02:34:55.863Z,4.30
2023-01-01T02:37:26.437Z,3.93
2023-01-01T02:39:57.929Z,3.75
2023-01-01T02:42:29.287Z,3.63
2023-01-01T02:45:00.719Z,3.57
2023-01-01T02:47:28.495Z,3.72
2023-01-01T02:50:03.833Z,3.47
2023-01-01T02:53:03.925Z,3.88
2023-01-01T02:55:48.838Z,5.57
2023-01-01T02:58:43.048Z,3.97
2023-01-01T03:01:21.158Z,3.80
2023-01-01T03:04:00.482Z,3.70
2023-01-01T03:06:36.108Z,3.97
2023-01-01T03:09:12.283Z,3.72
2023-01-01T03:11:49.187Z,3.17
2023-01-01T03:14:22.376Z,3.42
2023-01-01T03:16:57.427Z,5.47
2023-01-01T03:19:27.520Z,6.43
2023-01-01T03:21:59.022Z,3.80
2023-01-01T03:24:35.794Z,2.97
2023-01-01T03:27:08.914Z,4.67
2023-01-01T03:29:41.127Z,3.23
2023-01-01T03:32:14.392Z,4.63
2023-01-01T03:34:47.560Z,2.45
2023-01-01T03:37:25.123Z,3.33
2023-01-01T03:39:57.039Z,3.47
2023-01-01T03:42:31.135Z,4.15
2023-01-01T03:45:04.004Z,6.40
2023-01-01T03:47:33.773Z,4.20
2023-01-01T03:50:03.195Z,5.47
2023-01-01T03:52:43.031Z,4.57
2023-01-01T03:55:16.791Z,5.10
2023-01-01T03:57:51.202Z,5.10
2023-01-01T04:00:21.609Z,4.47
2023-01-01T04:02:56.372Z,4.20
2023-01-01T04:05:25.606Z,5.88
2023-01-01T04:07:54.612Z,3.25
2023-01-01T04:10:23.397Z,4.90
2023-01-01T04:12:54.038Z,5.10
2023-01-01T04:15:24.646Z,5.75
2023-01-01T04:17:54.333Z,4.67
2023-01-01T04:20:22.555Z,4.60
2023-01-01T04:22:50.194Z,4.25
2023-01-01T04:25:18.720Z,5.10
2023-01-01T04:27:46.289Z,4.90
2023-01-01T04:30:15.662Z,5.30
2023-01-01T04:32:43.610Z,5.07
2023-01-01T04:35:14.228Z,7.60
2023-01-01T04:37:43.377Z,14.65
2023-01-01T04:40:14.207Z,16.65
2023-01-01T04:42:43.071Z,18.40
2023-01-01T04:45:12.331Z,19.17
2023-01-01T04:47:40.040Z,16.77
2023-01-01T04:50:08.651Z,20.15
2023-01-01T04:52:38.485Z,20.77
2023-01-01T04:55:06.959Z,18.20
2023-01-01T04:57:34.597Z,20.83
2023-01-01T05:00:02.219Z,19.20
2023-01-01T05:02:29.922Z,20.45
2023-01-01T05:04:57.760Z,20.08
2023-01-01T05:07:25.300Z,19.20
2023-01-01T05:09:54.215Z,20.05
2023-01-01T05:12:21.748Z,19.92
2023-01-01T05:14:49.359Z,22.65
2023-01-01T05:17:16.969Z,20.65
2023-01-01T05:19:44.526Z,21.48
2023-01-01T05:22:12.093Z,20.33
2023-01-01T05:24:39.660Z,19.60
2023-01-01T05:27:08.657Z,18.23
2023-01-01T05:29:36.248Z,20.10
2023-01-01T05:32:03.941Z,21.40
2023-01-01T05:36:58.535Z,20.55
2023-01-01T05:39:26.110Z,14.52
2023-01-01T05:41:53.746Z,14.15
2023-01-01T05:44:22.707Z,5.95
2023-01-01T05:46:50.333Z,13.27
2023-01-01T05:49:17.923Z,8.77
2023-01-01T05:51:45.575Z,5.43
2023-01-01T05:56:39.935Z,8.20
2023-01-01T05:59:07.542Z,4.93
2023-01-01T06:01:41.761Z,7.55
2023-01-01T06:04:12.907Z,7.63
2023-01-01T06:06:40.556Z,4.97
2023-01-01T06:09:08.238Z,6.70
2023-01-01T06:11:35.992Z,6.07
2023-01-01T06:14:03.833Z,6.72
2023-01-01T06:16:32.535Z,6.75
2023-01-01T06:19:01.604Z,5.55
2023-01-01T06:21:30.279Z,7.25
2023-01-01T06:23:59.290Z,7.20
2023-01-01T06:26:29.075Z,7.85
2023-01-01T06:28:57.383Z,5.30
2023-01-01T06:31:26.193Z,8.03
2023-01-01T06:33:53.963Z,7.00
2023-01-01T06:36:24.953Z,8.10
2023-01-01T06:38:55.212Z,8.50
2023-01-01T06:41:25.003Z,7.05
2023-01-01T06:43:52.741Z,9.15
2023-01-01T06:46:22.344Z,6.53
2023-01-01T06:48:51.848Z,7.43
2023-01-01T06:51:20.843Z,4.20
2023-01-01T06:53:50.990Z,5.75
2023-01-01T06:56:19.434Z,7.97
2023-01-01T06:58:47.377Z,6.07
2023-01-01T07:01:17.186Z,6.20
2023-01-01T07:03:46.460Z,9.25
2023-01-01T07:06:14.725Z,6.97
2023-01-01T07:08:42.465Z,8.38
2023-01-01T07:11:11.411Z,8.45
2023-01-01T07:13:39.140Z,5.60
2023-01-01T07:16:12.642Z,8.02
2023-01-01T07:18:41.449Z,6.72
2023-01-01T07:21:29.213Z,8.05
2023-01-01T07:23:58.076Z,5.75
2023-01-01T07:26:28.074Z,9.48
2023-01-01T07:28:59.637Z,6.57
2023-01-01T07:31:32.110Z,9.60
2023-01-01T07:33:59.801Z,7.50
2023-01-01T07:36:27.440Z,7.05
2023-01-01T07:38:54.994Z,5.97
2023-01-01T07:41:22.656Z,4.57
2023-01-01T07:43:51.928Z,5.45
2023-01-01T07:46:19.946Z,6.15
2023-01-01T07:48:47.676Z,8.77
2023-01-01T07:51:15.342Z,8.83
2023-01-01T07:53:43.255Z,10.93
2023-01-01T07:56:11.359Z,7.38
2023-01-01T07:58:40.500Z,6.82
2023-01-01T08:01:11.630Z,7.85
2023-01-01T08:03:39.361Z,5.50
2023-01-01T08:06:09.334Z,9.57
2023-01-01T08:08:36.932Z,7.70
2023-01-01T08:11:04.663Z,7.68
2023-01-01T08:13:32.645Z,8.48
2023-01-01T08:16:00.709Z,7.38
2023-01-01T08:18:29.718Z,5.75
2023-01-01T08:20:57.579Z,6.75
2023-01-01T08:23:25.374Z,10.20
2023-01-01T08:25:53.004Z,8.50
2023-01-01T08:28:20.686Z,7.85
2023-01-01T08:30:48.255Z,9.77
2023-01-01T08:33:15.854Z,7.95
2023-01-01T08:35:47.751Z,9.63
2023-01-01T08:38:19.591Z,4.88
2023-01-01T08:40:47.150Z,7.43
2023-01-01T08:43:14.796Z,6.43
2023-01-01T08:45:42.426Z,8.40
2023-01-01T08:48:10.078Z,6.63
2023-01-01T08:50:37.970Z,7.67
2023-01-01T08:53:06.878Z,7.53
2023-01-01T08:55:34.619Z,6.78
2023-01-01T08:58:07.398Z,6.80
2023-01-01T09:00:35.154Z,7.47
2023-01-01T09:03:02.828Z,6.90
2023-01-01T09:05:30.535Z,7.10
2023-01-01T09:07:58.288Z,10.20
2023-01-01T09:10:27.261Z,8.25
2023-01-01T09:12:54.869Z,6.45
2023-01-01T09:15:22.440Z,7.43
2023-01-01T09:17:50.291Z,10.30
2023-01-01T09:20:17.955Z,7.90
2023-01-01T09:22:45.747Z,6.47
2023-01-01T09:25:13.364Z,7.35
2023-01-01T09:27:42.347Z,9.45
2023-01-01T09:30:11.573Z,9.37
2023-01-01T09:32:39.317Z,6.73
2023-01-01T09:35:07.823Z,7.00
2023-01-01T09:37:35.596Z,7.77
2023-01-01T09:40:03.515Z,9.73
2023-01-01T09:42:40.729Z,9.57
2023-01-01T09:45:24.300Z,7.35
2023-01-01T09:47:55.715Z,6.88
2023-01-01T09:50:29.792Z,8.93
2023-01-01T09:53:00.025Z,6.30
2023-01-01T09:55:30.422Z,8.43
2023-01-01T09:57:58.590Z,7.10
2023-01-01T10:00:31.689Z,7.60
2023-01-01T10:03:11.872Z,8.98
2023-01-01T10:05:50.938Z,6.57
2023-01-01T10:08:28.604Z,8.33
2023-01-01T10:11:06.808Z,7.90
2023-01-01T10:13:40.325Z,11.63
2023-01-01T10:16:23.883Z,5.40
2023-01-01T10:18:56.146Z,7.75
2023-01-01T10:21:28.240Z,8.82
2023-01-01T10:23:58.540Z,7.03
2023-01-01T10:26:29.982Z,7.15
2023-01-01T10:29:04.099Z,8.57
2023-01-01T10:31:35.221Z,9.23
2023-01-01T10:34:13.242Z,10.27
2023-01-01T10:36:41.164Z,6.88
2023-01-01T10:39:10.438Z,7.18
2023-01-01T10:41:38.108Z,9.13
2023-01-01T10:44:07.272Z,9.50
2023-01-01T10:46:38.119Z,9.75
2023-01-01T10:49:12.041Z,8.73
2023-01-01T10:51:44.820Z,8.38
2023-01-01T10:54:31.850Z,9.88
2023-01-01T10:57:00.061Z,8.75
2023-01-01T10:59:36.532Z,6.73
2023-01-01T11:02:20.551Z,7.03
2023-01-01T11:04:49.615Z,6.72
2023-01-01T11:07:29.394Z,9.40
2023-01-01T11:10:04.458Z,8.82
2023-01-01T11:15:35.041Z,11.88
2023-01-01T11:18:16.693Z,9.20
2023-01-01T11:20:45.171Z,8.80
2023-01-01T11:23:27.371Z,12.25
2023-01-01T11:26:01.021Z,8.23
2023-01-01T11:28:31.392Z,7.63
2023-01-01T11:31:02.827Z,8.43
2023-01-01T11:33:34.778Z,7.30
2023-01-01T11:36:02.899Z,6.40
2023-01-01T11:38:30.909Z,10.90
2023-01-01T11:41:04.438Z,7.00
2023-01-01T11:43:39.064Z,9.32
2023-01-01T11:46:10.101Z,10.68
2023-01-01T11:48:43.406Z,10.88
2023-01-01T11:51:12.574Z,9.40
2023-01-01T11:53:42.063Z,8.15
2023-01-01T11:56:16.426Z,10.10
2023-01-01T11:58:51.891Z,10.07
2023-01-01T12:01:27.207Z,8.23
2023-01-01T12:04:00.617Z,11.70
2023-01-01T12:06:32.215Z,7.87
2023-01-01T12:09:16.262Z,8.02
2023-01-01T12:11:51.868Z,6.23
2023-01-01T12:14:32.369Z,9.77
2023-01-01T12:17:03.410Z,9.15
2023-01-01T12:19:37.440Z,12.77
2023-01-01T12:22:13.310Z,7.45
2023-01-01T12:24:40.920Z,7.00
2023-01-01T12:27:20.054Z,9.00
2023-01-01T12:30:06.867Z,9.10
2023-01-01T12:32:49.843Z,6.82
2023-01-01T12:35:31.597Z,9.13
2023-01-01T12:38:12.040Z,9.88
2023-01-01T12:40:48.020Z,8.27
2023-01-01T12:43:24.252Z,9.57
2023-01-01T12:46:30.592Z,9.15
2023-01-01T12:49:27.243Z,10.10
2023-01-01T12:52:08.166Z,8.63
2023-01-01T12:54:54.616Z,8.45
2023-01-01T12:57:29.934Z,11.52
2023-01-01T13:00:01.998Z,9.80
2023-01-01T13:02:34.016Z,9.63
2023-01-01T13:05:05.550Z,7.22
2023-01-01T13:07:40.031Z,7.05
2023-01-01T13:10:17.850Z,8.20
2023-01-01T13:12:46.479Z,6.80
2023-01-01T13:15:45.323Z,8.63
2023-01-01T13:18:29.009Z,8.40
2023-01-01T13:21:15.461Z,8.05
2023-01-01T13:23:47.142Z,6.20
2023-01-01T13:26:38.093Z,10.35
2023-01-01T13:29:34.632Z,11.57
2023-01-01T13:32:06.342Z,10.93
2023-01-01T13:34:37.429Z,9.60
2023-01-01T13:37:27.713Z,9.32
2023-01-01T13:39:59.362Z,10.35
2023-01-01T13:42:51.861Z,10.82
2023-01-01T13:46:09.442Z,9.48
2023-01-01T13:48:26.602Z,7.35
2023-01-01T13:51:10.445Z,10.63
2023-01-01T13:53:56.052Z,7.13
2023-01-01T13:56:37.895Z,11.73
2023-01-01T13:59:39.412Z,9.63
2023-01-01T14:02:21.735Z,8.93
2023-01-01T14:04:55.141Z,10.02
2023-01-01T14:07:50.713Z,8.68
2023-01-01T14:10:26.052Z,9.68
2023-01-01T14:12:58.306Z,8.50
2023-01-01T14:15:29.446Z,12.75
2023-01-01T14:18:00.168Z,8.68
2023-01-01T14:20:34.798Z,8.90
2023-01-01T14:23:08.309Z,10.30
2023-01-01T14:25:36.715Z,8.50
2023-01-01T14:28:06.221Z,8.73
2023-01-01T14:30:34.406Z,10.60
2023-01-01T14:33:03.765Z,6.87
2023-01-01T14:35:31.626Z,13.43
2023-01-01T14:38:17.842Z,13.80
2023-01-01T14:40:46.130Z,10.10
2023-01-01T14:43:15.245Z,9.23
2023-01-01T14:45:44.664Z,8.73
2023-01-01T14:48:18.632Z,8.82
2023-01-01T14:50:49.079Z,9.05
2023-01-01T14:53:20.580Z,11.95
2023-01-01T14:55:50.416Z,10.18
2023-01-01T14:58:21.797Z,9.95
2023-01-01T15:00:49.456Z,13.07
2023-01-01T15:03:19.013Z,12.80
2023-01-01T15:05:58.074Z,13.13
2023-01-01T15:08:26.869Z,16.03
2023-01-01T15:10:55.463Z,15.10
2023-01-01T15:13:26.105Z,17.30
2023-01-01T15:15:55.193Z,16.05
2023-01-01T15:18:40.051Z,17.27
2023-01-01T15:21:14.005Z,17.48
2023-01-01T15:23:53.524Z,12.98
2023-01-01T15:26:31.174Z,15.68
2023-01-01T15:29:01.485Z,14.18
2023-01-01T15:31:37.869Z,19.92
2023-01-01T15:34:05.938Z,17.53
2023-01-01T15:36:34.216Z,14.73
2023-01-01T15:39:01.977Z,14.97
2023-01-01T15:41:43.154Z,18.20
2023-01-01T15:44:27.336Z,18.63
2023-01-01T15:47:04.249Z,15.70
2023-01-01T15:49:33.279Z,20.17
2023-01-01T15:52:04.137Z,16.30
2023-01-01T15:54:33.392Z,14.00
2023-01-01T15:57:01.057Z,14.30
2023-01-01T15:59:34.692Z,20.30
2023-01-01T16:02:13.549Z,20.73
2023-01-01T16:04:45.892Z,30.03
2023-01-01T16:07:19.107Z,22.83
2023-01-01T16:09:50.539Z,14.38
2023-01-01T16:12:21.917Z,13.90
2023-01-01T16:14:50.852Z,12.57
2023-01-01T16:17:21.217Z,11.98
2023-01-01T16:19:51.418Z,13.05
2023-01-01T16:22:20.362Z,14.73
2023-01-01T16:24:48.216Z,14.13
2023-01-01T16:27:15.761Z,13.25
2023-01-01T16:29:44.279Z,13.73
2023-01-01T16:32:18.318Z,12.32
2023-01-01T16:34:45.986Z,14.27
2023-01-01T16:37:13.558Z,13.02
2023-01-01T16:39:41.195Z,13.85
2023-01-01T16:42:12.220Z,11.82
2023-01-01T16:44:42.032Z,16.85
2023-01-01T16:47:09.911Z,13.30
2023-01-01T16:49:38.917Z,13.40
2023-01-01T16:52:06.511Z,14.73
2023-01-01T16:54:34.983Z,15.15
2023-01-01T16:57:02.635Z,16.63
2023-01-01T16:59:30.283Z,16.15
2023-01-01T17:01:58.034Z,12.10
2023-01-01T17:04:25.780Z,13.00
2023-01-01T17:06:54.880Z,11.07
2023-01-01T17:09:22.439Z,15.45
2023-01-01T17:11:50.013Z,16.30
2023-01-01T17:14:17.604Z,13.65
2023-01-01T17:16:45.238Z,14.93
2023-01-01T17:19:14.866Z,13.90
2023-01-01T17:21:43.973Z,11.02
2023-01-01T17:24:12.866Z,12.18
2023-01-01T17:26:40.445Z,16.58
2023-01-01T17:29:08.140Z,13.52
2023-01-01T17:31:36.358Z,44.95
2023-01-01T17:34:04.831Z,27.55
2023-01-01T17:36:32.437Z,18.67
2023-01-01T17:39:00.246Z,15.45
2023-01-01T17:41:29.174Z,16.15
2023-01-01T17:43:57.522Z,16.70
2023-01-01T17:46:28.190Z,17.08
2023-01-01T17:48:56.055Z,14.75
2023-01-01T17:51:24.224Z,22.63
2023-01-01T17:53:52.046Z,11.90
2023-01-01T17:56:25.012Z,18.30
2023-01-01T17:58:54.710Z,132.10
2023-01-01T18:01:31.538Z,39.72
2023-01-01T18:04:01.114Z,17.75
2023-01-01T18:06:30.437Z,13.85
2023-01-01T18:08:59.930Z,26.88
2023-01-01T18:11:29.496Z,21.02
2023-01-01T18:13:59.785Z,19.58
2023-01-01T18:16:28.345Z,15.90
2023-01-01T18:18:56.803Z,17.40
2023-01-01T18:21:24.817Z,15.15
2023-01-01T18:23:54.010Z,30.30
2023-01-01T18:26:23.583Z,18.10
2023-01-01T18:28:53.012Z,12.35
2023-01-01T18:31:23.069Z,16.08
2023-01-01T18:33:51.498Z,15.80
2023-01-01T18:36:23.563Z,14.88
2023-01-01T18:38:57.836Z,17.23
2023-01-01T18:41:41.139Z,17.52
2023-01-01T18:44:19.395Z,19.67
2023-01-01T18:46:53.681Z,15.00
2023-01-01T18:49:23.858Z,12.40
2023-01-01T18:51:55.200Z,11.52
2023-01-01T18:54:23.185Z,14.70
2023-01-01T18:56:51.886Z,18.95
2023-01-01T18:59:22.557Z,26.10
2023-01-01T19:01:52.062Z,20.33
2023-01-01T19:04:21.248Z,20.90
2023-01-01T19:06:48.973Z,24.73
2023-01-01T19:09:21.597Z,13.88
2023-01-01T19:11:50.081Z,14.60
2023-01-01T19:14:19.354Z,11.63
2023-01-01T19:16:48.292Z,10.10
2023-01-01T19:19:20.133Z,7.57
2023-01-01T19:21:51.884Z,6.97
2023-01-01T19:24:23.018Z,7.35
2023-01-01T19:26:56.044Z,7.67
2023-01-01T19:29:25.327Z,12.93
2023-01-01T19:31:55.279Z,11.93
2023-01-01T19:34:25.766Z,8.95
2023-01-01T19:36:54.105Z,8.52
2023-01-01T19:39:21.885Z,10.52
2023-01-01T19:41:49.631Z,9.70
2023-01-01T19:44:22.971Z,7.47
2023-01-01T19:46:52.768Z,8.95
2023-01-01T19:49:20.533Z,10.10
2023-01-01T19:51:49.895Z,7.30
2023-01-01T19:54:17.670Z,9.02
2023-01-01T19:56:45.760Z,7.55
2023-01-01T19:59:13.530Z,9.43
2023-01-01T20:01:41.356Z,10.15
2023-01-01T20:04:09.460Z,19.55
2023-01-01T20:06:37.873Z,12.30
2023-01-01T20:09:06.970Z,12.60
2023-01-01T20:11:36.034Z,13.95
2023-01-01T20:14:03.742Z,12.63
2023-01-01T20:16:32.565Z,24.07
2023-01-01T20:19:00.362Z,12.57
2023-01-01T20:21:47.470Z,11.93
2023-01-01T20:24:17.588Z,31.73
2023-01-01T20:26:45.234Z,14.65
2023-01-01T20:29:21.997Z,16.67
2023-01-01T20:31:51.652Z,14.23
2023-01-01T20:34:19.638Z,13.48
2023-01-01T20:37:05.335Z,12.75
2023-01-01T20:39:34.984Z,9.25
2023-01-01T20:42:03.094Z,12.00
2023-01-01T20:44:31.435Z,13.80
2023-01-01T20:46:59.998Z,9.80
2023-01-01T20:49:27.667Z,10.87
2023-01-01T20:51:55.458Z,11.38
2023-01-01T20:54:24.535Z,12.40
2023-01-01T20:56:53.617Z,11.07
2023-01-01T20:59:38.078Z,12.70
2023-01-01T21:02:07.120Z,11.82
2023-01-01T21:04:38.107Z,10.52
2023-01-01T21:07:05.863Z,10.25
2023-01-01T21:09:33.492Z,14.32
2023-01-01T21:12:02.483Z,10.93
2023-01-01T21:14:30.100Z,13.10
2023-01-01T21:16:58.120Z,13.15
2023-01-01T21:19:27.254Z,14.97
2023-01-01T21:21:57.115Z,14.70
2023-01-01T21:24:28.725Z,12.13
2023-01-01T21:27:06.638Z,15.80
2023-01-01T21:29:34.379Z,16.90
2023-01-01T21:32:20.000Z,13.90
2023-01-01T21:34:50.408Z,13.73
2023-01-01T21:37:43.931Z,16.15
2023-01-01T21:40:38.427Z,17.45
2023-01-01T21:43:33.339Z,17.13
2023-01-01T21:46:17.106Z,14.25
2023-01-01T21:48:55.345Z,13.75
2023-01-01T21:51:25.232Z,14.80
2023-01-01T21:53:55.035Z,11.40
2023-01-01T21:56:29.389Z,14.52
2023-01-01T21:59:21.256Z,17.90
2023-01-01T22:01:50.144Z,12.80
2023-01-01T22:04:22.997Z,12.88
2023-01-01T22:06:52.413Z,15.77
2023-01-01T22:09:23.813Z,11.38
2023-01-01T22:11:54.376Z,13.97
2023-01-01T22:14:28.238Z,15.15
2023-01-01T22:16:56.854Z,10.85
2023-01-01T22:19:29.475Z,13.63
2023-01-01T22:21:57.202Z,13.13
2023-01-01T22:24:33.304Z,13.40
2023-01-01T22:27:18.848Z,16.27
2023-01-01T22:29:47.982Z,15.43
2023-01-01T22:32:20.639Z,13.40
2023-01-01T22:34:49.568Z,12.63
2023-01-01T22:37:20.288Z,17.20
2023-01-01T22:39:48.496Z,45.55
2023-01-01T22:42:18.319Z,34.40
2023-01-01T22:44:54.299Z,65.72
2023-01-01T22:47:21.932Z,61.17
2023-01-01T22:49:52.972Z,73.50
2023-01-01T22:52:20.580Z,162.65
2023-01-01T22:54:48.159Z,32.42
2023-01-01T22:57:15.713Z,39.17
2023-01-01T22:59:43.283Z,20.92
2023-01-01T23:02:12.256Z,21.23
2023-01-01T23:04:39.972Z,20.63
2023-01-01T23:07:14.062Z,15.80
2023-01-01T23:09:42.447Z,29.23
2023-01-01T23:12:10.541Z,30.90
2023-01-01T23:14:56.132Z,23.27
2023-01-01T23:17:25.110Z,25.65
2023-01-01T23:19:53.503Z,24.30
2023-01-01T23:22:21.729Z,28.85
2023-01-01T23:24:49.319Z,34.42
2023-01-01T23:27:16.878Z,25.87
2023-01-01T23:29:46.880Z,21.75
2023-01-01T23:32:15.317Z,18.85
2023-01-01T23:34:45.760Z,21.30
2023-01-01T23:37:15.278Z,16.83
2023-01-01T23:39:43.270Z,17.90
2023-01-01T23:42:10.873Z,37.08
2023-01-01T23:44:38.741Z,37.60
2023-01-01T23:47:06.434Z,29.98
2023-01-01T23:49:34.762Z,16.92
2023-01-01T23:52:04.949Z,17.27
2023-01-01T23:54:32.555Z,13.63
2023-01-01T23:57:00.131Z,15.10
2023-01-01T23:59:27.769Z,19.08
